Map

Track Data

SID SEASON NUMBER BASIN SUBBASIN NAME ISO_TIME NATURE LAT LON WMO_WIND WMO_PRES WMO_AGENCY TRACK_TYPE DIST2LAND LANDFALL IFLAG USA_AGENCY USA_ATCF_ID USA_LAT USA_LON USA_RECORD USA_STATUS USA_WIND USA_PRES USA_SSHS USA_R34_NE USA_R34_SE USA_R34_SW USA_R34_NW USA_R50_NE USA_R50_SE USA_R50_SW USA_R50_NW USA_R64_NE USA_R64_SE USA_R64_SW USA_R64_NW USA_POCI USA_ROCI USA_RMW USA_EYE TOKYO_LAT TOKYO_LON TOKYO_GRADE TOKYO_WIND TOKYO_PRES TOKYO_R50_DIR TOKYO_R50_LONG TOKYO_R50_SHORT TOKYO_R30_DIR TOKYO_R30_LONG TOKYO_R30_SHORT TOKYO_LAND CMA_LAT CMA_LON CMA_CAT CMA_WIND CMA_PRES HKO_LAT HKO_LON HKO_CAT HKO_WIND HKO_PRES NEWDELHI_LAT NEWDELHI_LON NEWDELHI_GRADE NEWDELHI_WIND NEWDELHI_PRES NEWDELHI_CI NEWDELHI_DP NEWDELHI_POCI REUNION_LAT REUNION_LON REUNION_TYPE REUNION_WIND REUNION_PRES REUNION_TNUM REUNION_CI REUNION_RMW REUNION_R34_NE REUNION_R34_SE REUNION_R34_SW REUNION_R34_NW REUNION_R50_NE REUNION_R50_SE REUNION_R50_SW REUNION_R50_NW REUNION_R64_NE REUNION_R64_SE REUNION_R64_SW REUNION_R64_NW BOM_LAT BOM_LON BOM_TYPE BOM_WIND BOM_PRES BOM_TNUM BOM_CI BOM_RMW BOM_R34_NE BOM_R34_SE BOM_R34_SW BOM_R34_NW BOM_R50_NE BOM_R50_SE BOM_R50_SW BOM_R50_NW BOM_R64_NE BOM_R64_SE BOM_R64_SW BOM_R64_NW BOM_ROCI BOM_POCI BOM_EYE BOM_POS_METHOD BOM_PRES_METHOD NADI_LAT NADI_LON NADI_CAT NADI_WIND NADI_PRES WELLINGTON_LAT WELLINGTON_LON WELLINGTON_WIND WELLINGTON_PRES DS824_LAT DS824_LON DS824_STAGE DS824_WIND DS824_PRES TD9636_LAT TD9636_LON TD9636_STAGE TD9636_WIND TD9636_PRES TD9635_LAT TD9635_LON TD9635_WIND TD9635_PRES TD9635_ROCI NEUMANN_LAT NEUMANN_LON NEUMANN_CLASS NEUMANN_WIND NEUMANN_PRES MLC_LAT MLC_LON MLC_CLASS MLC_WIND MLC_PRES USA_GUST BOM_GUST BOM_GUST_PER REUNION_GUST REUNION_GUST_PER USA_SEAHGT USA_SEARAD_NE USA_SEARAD_SE USA_SEARAD_SW USA_SEARAD_NW STORM_SPEED STORM_DIR
1954268N14284 1954 70 NA CS GILDA 1954-09-24 18:00:00 TS 14.1000 -75.8000 35 hurdat_atl main 360 360 O_____________ hurdat_atl AL121954 14.1000 -75.8000 TS 35 0 11 282
1954268N14284 1954 70 NA CS GILDA 1954-09-24 21:00:00 TS 14.2127 -76.3323 main 389 381 P_____________ AL121954 14.2127 -76.3323 TS 35 0 11 281
1954268N14284 1954 70 NA CS GILDA 1954-09-25 00:00:00 TS 14.3000 -76.9000 35 hurdat_atl main 381 380 O_____________ hurdat_atl AL121954 14.3000 -76.9000 TS 35 0 12 277
1954268N14284 1954 70 NA CS GILDA 1954-09-25 03:00:00 TS 14.3499 -77.5277 main 381 371 P_____________ AL121954 14.3499 -77.5277 TS 37 0 13 275
1954268N14284 1954 70 NA CS GILDA 1954-09-25 06:00:00 TS 14.4000 -78.2000 40 hurdat_atl main 384 384 O_____________ hurdat_atl AL121954 14.4000 -78.2000 TS 40 0 13 276
1954268N14284 1954 70 NA CS GILDA 1954-09-25 09:00:00 TS 14.4846 -78.8626 main 401 379 P_____________ AL121954 14.4846 -78.8626 TS 40 0 14 278
1954268N14284 1954 70 NA CS GILDA 1954-09-25 12:00:00 TS 14.6000 -79.6000 40 hurdat_atl main 379 292 O_____________ hurdat_atl AL121954 14.6000 -79.6000 TS 40 0 16 279
1954268N14284 1954 70 NA CS GILDA 1954-09-25 15:00:00 TS 14.7201 -80.4852 main 281 183 P_____________ AL121954 14.7201 -80.4852 TS 42 0 18 280
1954268N14284 1954 70 NA CS GILDA 1954-09-25 18:00:00 TS 14.9000 -81.4000 45 hurdat_atl main 183 99 O_____________ hurdat_atl AL121954 14.9000 -81.4000 TS 45 0 18 285
1954268N14284 1954 70 NA CS GILDA 1954-09-25 21:00:00 TS 15.1848 -82.2448 main 99 48 P_____________ AL121954 15.1848 -82.2448 TS 47 0 17 291
1954268N14284 1954 70 NA CS GILDA 1954-09-26 00:00:00 TS 15.5000 -83.0000 50 hurdat_atl main 48 35 O_____________ hurdat_atl AL121954 15.5000 -83.0000 TS 50 0 15 294
1954268N14284 1954 70 NA CS GILDA 1954-09-26 03:00:00 TS 15.7722 -83.6451 main 46 24 P_____________ AL121954 15.7722 -83.6451 TS 52 0 13 293
1954268N14284 1954 70 NA CS GILDA 1954-09-26 06:00:00 TS 16.0000 -84.2000 55 hurdat_atl main 24 22 O_____________ hurdat_atl AL121954 16.0000 -84.2000 TS 55 0 11 291
1954268N14284 1954 70 NA CS GILDA 1954-09-26 09:00:00 TS 16.1724 -84.7301 main 33 33 P_____________ AL121954 16.1724 -84.7301 TS 57 0 10 287
1954268N14284 1954 70 NA CS GILDA 1954-09-26 12:00:00 TS 16.3000 -85.2000 60 hurdat_atl main 44 44 O_____________ hurdat_atl AL121954 16.3000 -85.2000 TS 60 0 9 286
1954268N14284 1954 70 NA CS GILDA 1954-09-26 15:00:00 TS 16.4148 -85.6151 main 55 55 P_____________ AL121954 16.4148 -85.6151 TS 60 0 8 285
1954268N14284 1954 70 NA CS GILDA 1954-09-26 18:00:00 TS 16.5000 -86.0000 60 hurdat_atl main 67 67 O_____________ hurdat_atl AL121954 16.5000 -86.0000 TS 60 0 8 281
1954268N14284 1954 70 NA CS GILDA 1954-09-26 21:00:00 TS 16.5651 -86.4300 main 89 89 P_____________ AL121954 16.5651 -86.4300 TS 57 0 8 277
1954268N14284 1954 70 NA CS GILDA 1954-09-27 00:00:00 TS 16.6000 -86.8000 55 998 hurdat_atl main 90 89 O_____________ hurdat_atl AL121954 16.6000 -86.8000 TS 55 998 0 6 274
1954268N14284 1954 70 NA CS GILDA 1954-09-27 03:00:00 TS 16.6073 -87.0150 main 89 89 P_____________ AL121954 16.6073 -87.0150 TS 55 0 4 270
1954268N14284 1954 70 NA CS GILDA 1954-09-27 06:00:00 TS 16.6000 -87.2000 55 hurdat_atl main 89 86 O_____________ hurdat_atl AL121954 16.6000 -87.2000 TS 55 0 4 268
1954268N14284 1954 70 NA CS GILDA 1954-09-27 09:00:00 TS 16.5901 -87.4755 main 86 57 P_____________ AL121954 16.5901 -87.4755 TS 55 0 6 270
1954268N14284 1954 70 NA CS GILDA 1954-09-27 12:00:00 TS 16.6000 -87.8000 55 hurdat_atl main 57 24 O_____________ hurdat_atl AL121954 16.6000 -87.8000 TS 55 0 6 278
1954268N14284 1954 70 NA CS GILDA 1954-09-27 15:00:00 TS 16.6696 -88.0989 main 24 0 P_____________ AL121954 16.6696 -88.0989 TS 55 0 7 280
1954268N14284 1954 70 NA NA GILDA 1954-09-27 17:00:00 TS 16.7000 -88.4000 55 hurdat_atl main 0 0 O_____________ hurdat_atl AL121954 16.7000 -88.4000 L TS 55 0 10 274
1954268N14284 1954 70 NA NA GILDA 1954-09-27 18:00:00 TS 16.7000 -88.6000 55 hurdat_atl main 0 0 O_____________ hurdat_atl AL121954 16.7000 -88.6000 TS 55 0 9 276
1954268N14284 1954 70 NA NA GILDA 1954-09-27 21:00:00 TS 16.7548 -88.9930 main 0 0 P_____________ AL121954 16.7548 -88.9930 TS 50 0 6 289
1954268N14284 1954 70 NA NA GILDA 1954-09-28 00:00:00 TS 16.9000 -89.2000 45 hurdat_atl main 0 0 O_____________ hurdat_atl AL121954 16.9000 -89.2000 TS 45 0 5 313
1954268N14284 1954 70 NA NA GILDA 1954-09-28 03:00:00 TS 17.1199 -89.4001 main 0 0 P_____________ AL121954 17.1199 -89.4001 TS 40 0 6 323
1954268N14284 1954 70 NA NA GILDA 1954-09-28 06:00:00 TS 17.4000 -89.6000 35 hurdat_atl main 0 0 O_____________ hurdat_atl AL121954 17.4000 -89.6000 TS 35 0 7 321
1954268N14284 1954 70 NA NA GILDA 1954-09-28 09:00:00 TS 17.6925 -89.8850 main 0 0 P_____________ AL121954 17.6925 -89.8850 TS 32 -1 8 316
1954268N14284 1954 70 NA NA GILDA 1954-09-28 12:00:00 TS 18.0000 -90.2000 30 hurdat_atl main 0 0 O_____________ hurdat_atl AL121954 18.0000 -90.2000 TD 30 -1 8 316
1954268N14284 1954 70 NA NA GILDA 1954-09-28 15:00:00 TS 18.2999 -90.4926 main 0 0 P_____________ AL121954 18.2999 -90.4926 TD 30 -1 8 317
1954268N14284 1954 70 NA NA GILDA 1954-09-28 18:00:00 TS 18.6000 -90.8000 30 hurdat_atl main 0 0 O_____________ hurdat_atl AL121954 18.6000 -90.8000 TD 30 -1 9 316
1954268N14284 1954 70 NA NA GILDA 1954-09-28 21:00:00 TS 18.9073 -91.1202 main 0 0 P_____________ AL121954 18.9073 -91.1202 TD 30 -1 9 312
1954268N14284 1954 70 NA GM GILDA 1954-09-29 00:00:00 TS 19.2000 -91.5000 30 hurdat_atl main 30 30 O_____________ hurdat_atl AL121954 19.2000 -91.5000 TD 30 -1 10 306
1954268N14284 1954 70 NA GM GILDA 1954-09-29 03:00:00 TS 19.4722 -91.9476 main 79 79 P_____________ AL121954 19.4722 -91.9476 TD 30 -1 11 298
1954268N14284 1954 70 NA GM GILDA 1954-09-29 06:00:00 TS 19.7000 -92.5000 30 hurdat_atl main 123 123 O_____________ hurdat_atl AL121954 19.7000 -92.5000 TD 30 -1 12 289
1954268N14284 1954 70 NA GM GILDA 1954-09-29 09:00:00 TS 19.8649 -93.1628 main 154 154 P_____________ AL121954 19.8649 -93.1628 TD 30 -1 14 283
1954268N14284 1954 70 NA GM GILDA 1954-09-29 12:00:00 TS 20.0000 -93.9000 30 hurdat_atl main 190 168 O_____________ hurdat_atl AL121954 20.0000 -93.9000 TD 30 -1 14 281
1954268N14284 1954 70 NA GM GILDA 1954-09-29 15:00:00 TS 20.1349 -94.6503 main 165 113 P_____________ AL121954 20.1349 -94.6503 TD 30 -1 14 282
1954268N14284 1954 70 NA GM GILDA 1954-09-29 18:00:00 TS 20.3000 -95.4000 30 hurdat_atl main 113 68 O_____________ hurdat_atl AL121954 20.3000 -95.4000 TD 30 -1 14 285
1954268N14284 1954 70 NA GM GILDA 1954-09-29 21:00:00 TS 20.5048 -96.1229 main 68 38 P_____________ AL121954 20.5048 -96.1229 TD 30 -1 14 291
1954268N14284 1954 70 NA GM GILDA 1954-09-30 00:00:00 TS 20.8000 -96.8000 30 hurdat_atl main 38 0 O_____________ hurdat_atl AL121954 20.8000 -96.8000 TD 30 -1 14 300
1954268N14284 1954 70 NA GM GILDA 1954-09-30 03:00:00 TS 21.2153 -97.4166 main 0 0 P_____________ AL121954 21.2153 -97.4166 TD 27 -1 14 309
1954268N14284 1954 70 NA NA GILDA 1954-09-30 06:00:00 TS 21.7000 -98.0000 25 hurdat_atl main 0 O_____________ hurdat_atl AL121954 21.7000 -98.0000 TD 25 -1 15 312

About IBTrACS Database

This database is a web-friendly format of International Best Track Archive for Climate Stewardship (IBTrACS), a global best track data archive curated by NOAA dating back to 1842.

Updated: 2021-10-21